Minneapolis/St.Paul Radar Regional Satellite Twin Cities Traffic Info Map
Radar Satellite Traffic Traffic Cams
KLVN - Lakeville, Minnesota, USA
Distance from station: ENE 4mi, 6km
Updated: Wed, 17-Jan-2018 8:15am CST
Clear
Clear
 Wind from SW
Wind: SW 6 mph , 9 km/h
Temperature: 9°F , -13°C
Wind Chill: -1°F , -18°C
Dew Point: -0°F , -18°C
Humidity: 66%
Barometer: 30.32 inHg , 1026.8 hPa
Clouds: Clear
Visibility: 10 miles , 16 km
2018/01/17 14:15 KLVN 171415Z AUTO 23005KT 10SM CLR M13/M18 A3032 RMK AO2
KFCM - Eden Prairie, Minnesota, USA
Distance from station: NNW 17mi, 28km
Updated: Wed, 17-Jan-2018 7:53am CST
Clear
Clear
 Wind from SW
Wind: SW 8 mph , 13 km/h
Temperature: 3°F , -16°C
Wind Chill: -10°F , -23°C
Dew Point: -2°F , -19°C
Humidity: 78%
Barometer: 30.31 inHg , 1026.4 hPa
Clouds: Clear
Visibility: 10 miles , 16 km
2018/01/17 13:53 KFCM 171353Z 22007KT 10SM CLR M16/M19 A3031 RMK AO2 SLP289 T11561194
 
KSYN - Stanton, Minnesota, USA
Distance from station: SE 18mi, 28km
Updated: Wed, 17-Jan-2018 8:15am CST
Clear
Clear
 Wind from SSW
Wind: SSW 13 mph , 20 km/h
Temperature: 9°F , -13°C
Wind Chill: -7°F , -22°C
Dew Point: -0°F , -18°C
Humidity: 66%
Barometer: 30.33 inHg , 1027.1 hPa
Clouds: Clear
Visibility: 10 miles , 16 km
2018/01/17 14:15 KSYN 171415Z AUTO 21011KT 10SM CLR M13/M18 A3033 RMK AO2 T11341178
KFBL - Faribault, Minnesota, USA
Distance from station: S 19mi, 31km
Updated: Wed, 17-Jan-2018 8:15am CST
Clear
Clear
 Wind from S
Wind: S 9 mph , 15 km/h
Temperature: 7°F , -14°C
Wind Chill: -6°F , -21°C
Dew Point: -0°F , -18°C
Humidity: 72%
Barometer: 30.34 inHg , 1027.4 hPa
Clouds: Clear
Visibility: 10 miles , 16 km
2018/01/17 14:15 KFBL 171415Z AUTO 19008KT 10SM CLR M14/M18 A3034 RMK AO2
 
KMSP - Minneapolis, Minnesota, USA
Distance from station: N 19mi, 31km
Updated: Wed, 17-Jan-2018 7:53am CST
Partly Cloudy
Partly Cloudy
 Wind from SW
Wind: SW 6 mph , 9 km/h
Temperature: 7°F , -14°C
Wind Chill: -4°F , -20°C
Dew Point: -0°F , -18°C
Humidity: 72%
Barometer: 30.33 inHg , 1027.1 hPa
Clouds: Partly Cloudy
Visibility: 10 miles , 16 km
Cloud details: Partly Cloudy 25000 ft
2018/01/17 13:53 KMSP 171353Z 22005KT 10SM SCT250 M14/M18 A3033 RMK AO2 SLP293 T11441178